Time;durP1;ratioP1;P1;durP2;ratioP2;P2;SDS_P1;SDS_P2;PMS_P1;PMS_P2;Temp;Humidity;BMP_temperature;BMP_pressure;BME280_temperature;BME280_humidity;BME280_pressure;Samples;Min_cycle;Max_cycle;Signal;HPM_P1;HPM_P2
2021/03/29 00:00:56;;;;;;;17.75;11.68;;;;;;;6.84;78.89;100169.94;3549619;27;20060;-51
2021/03/29 00:02:38;;;;;;;20.83;12.07;;;;;;;6.85;78.94;100173.38;3553313;27;20450;-50
2021/03/29 00:04:19;;;;;;;20.42;11.63;;;;;;;6.84;78.52;100177.69;3551808;27;20050;-50
2021/03/29 00:06:01;;;;;;;19.95;12.52;;;;;;;6.84;78.83;100162.22;3552341;27;20113;-52
2021/03/29 00:07:47;;;;;;;18.63;11.50;;;;;;;6.84;79.32;100167.38;3550699;27;20047;-51
2021/03/29 00:09:31;;;;;;;19.52;11.85;;;;;;;6.81;79.25;100167.25;3551044;27;20100;-52
2021/03/29 00:11:12;;;;;;;18.98;12.00;;;;;;;6.80;79.46;100174.91;3539817;27;20079;-52
2021/03/29 00:12:56;;;;;;;18.33;11.38;;;;;;;6.77;79.45;100173.13;3546880;27;20046;-51
2021/03/29 00:14:39;;;;;;;17.92;11.73;;;;;;;6.77;79.03;100173.13;3552180;27;20099;-50
2021/03/29 00:16:22;;;;;;;16.17;10.27;;;;;;;6.77;79.36;100177.38;3551746;27;20514;-50
2021/03/29 00:18:06;;;;;;;18.67;11.33;;;;;;;6.77;79.08;100177.38;3551463;27;20530;-53
2021/03/29 00:19:48;;;;;;;18.40;10.38;;;;;;;6.76;79.49;100175.63;3552886;27;20476;-52
2021/03/29 00:21:29;;;;;;;16.67;10.45;;;;;;;6.75;79.16;100181.59;3550078;27;20050;-52
2021/03/29 00:23:11;;;;;;;16.27;9.45;;;;;;;6.73;79.69;100180.66;3552908;27;20042;-53
2021/03/29 00:24:53;;;;;;;16.45;10.20;;;;;;;6.73;79.29;100185.81;3549627;27;20054;-47
2021/03/29 00:26:35;;;;;;;16.60;10.00;;;;;;;6.73;78.98;100188.41;3553203;27;20061;-48
2021/03/29 00:28:18;;;;;;;17.60;9.68;;;;;;;6.70;79.11;100190.06;3552193;27;20491;-47
2021/03/29 00:30:01;;;;;;;16.55;10.35;;;;;;;6.68;79.58;100185.66;3551050;27;20053;-47
2021/03/29 00:31:44;;;;;;;18.08;10.13;;;;;;;6.65;79.26;100185.56;3551695;27;20095;-47
2021/03/29 00:33:28;;;;;;;16.45;9.63;;;;;;;6.62;78.46;100188.00;3549508;27;20074;-47
2021/03/29 00:35:10;;;;;;;15.13;9.07;;;;;;;6.61;79.11;100192.28;3552992;27;20051;-47
2021/03/29 00:36:53;;;;;;;16.00;8.95;;;;;;;6.58;78.66;100184.44;3550497;27;20074;-47
2021/03/29 00:38:37;;;;;;;15.02;8.70;;;;;;;6.56;78.83;100185.19;3552576;27;20502;-47
2021/03/29 00:40:18;;;;;;;16.50;9.07;;;;;;;6.54;79.26;100192.88;3549732;27;20486;-47
2021/03/29 00:42:01;;;;;;;25.85;9.88;;;;;;;6.50;79.04;100184.13;3549804;27;20039;-47
2021/03/29 00:43:45;;;;;;;12.77;8.23;;;;;;;6.48;78.68;100198.66;3551769;27;20099;-47
2021/03/29 00:45:26;;;;;;;;;;;;;;;6.49;79.27;100196.97;3549743;27;20507;-47
2021/03/29 00:47:08;;;;;;;14.75;8.65;;;;;;;6.47;79.77;100191.75;3553207;27;19934;-52
2021/03/29 00:48:52;;;;;;;14.80;8.85;;;;;;;6.48;79.13;100196.06;3549319;27;20081;-53
2021/03/29 00:50:44;;;;;;;17.50;10.05;;;;;;;6.47;79.74;100193.44;3552186;27;20046;-53
2021/03/29 00:52:27;;;;;;;17.73;9.63;;;;;;;6.45;79.76;100195.97;3551320;27;20062;-52
2021/03/29 00:54:10;;;;;;;16.73;9.80;;;;;;;6.44;79.59;100199.38;3549319;27;20062;-53
2021/03/29 00:55:52;;;;;;;17.35;9.00;;;;;;;6.43;79.53;100197.59;3552890;27;20080;-48
2021/03/29 00:57:34;;;;;;;14.98;8.77;;;;;;;6.43;79.32;100197.59;3551505;27;20074;-48
2021/03/29 00:59:18;;;;;;;15.88;8.98;;;;;;;6.44;79.27;100204.53;3552297;27;20549;-48
2021/03/29 01:01:04;;;;;;;14.10;8.40;;;;;;;6.41;79.30;100209.53;3549382;27;20053;-47
2021/03/29 01:02:46;;;;;;;14.98;8.63;;;;;;;6.39;79.59;100202.59;3549193;27;20076;-47
2021/03/29 01:04:29;;;;;;;16.60;9.20;;;;;;;6.36;79.07;100202.47;3551310;27;20577;-48
2021/03/29 01:06:13;;;;;;;16.02;9.32;;;;;;;6.36;79.39;100212.78;3549682;27;20070;-51
2021/03/29 01:07:54;;;;;;;15.65;9.63;;;;;;;6.36;79.54;100207.63;3552567;27;20517;-53
2021/03/29 01:09:36;;;;;;;14.43;9.43;;;;;;;6.31;80.04;100204.84;3551578;27;20051;-49
2021/03/29 01:11:21;;;;;;;19.48;9.77;;;;;;;6.27;80.80;100215.84;3552126;27;20042;-52
2021/03/29 01:13:05;;;;;;;14.68;8.75;;;;;;;6.23;80.29;100217.44;3550500;27;20074;-52
2021/03/29 01:14:50;;;;;;;15.80;9.20;;;;;;;6.22;80.37;100209.66;3550316;27;20078;-51
2021/03/29 01:16:39;;;;;;;15.25;8.60;;;;;;;6.24;80.36;100215.72;3551976;27;20046;-54
2021/03/29 01:18:22;;;;;;;17.08;9.23;;;;;;;6.22;80.55;100213.09;3549495;27;20053;-48
2021/03/29 01:20:13;;;;;;;20.13;9.50;;;;;;;6.20;80.83;100211.28;3552250;27;20061;-49
2021/03/29 01:22:02;;;;;;;19.40;10.55;;;;;;;6.18;80.89;100213.78;3551121;27;20038;-47
2021/03/29 01:23:44;;;;;;;17.17;9.90;;;;;;;6.17;80.71;100216.31;3550000;27;20044;-53
2021/03/29 01:25:31;;;;;;;17.40;9.10;;;;;;;6.15;80.88;100217.94;3551101;27;20477;-52
2021/03/29 01:27:16;;;;;;;16.92;9.52;;;;;;;6.15;80.17;100221.38;3550117;27;20050;-51
2021/03/29 01:28:59;;;;;;;16.10;9.55;;;;;;;6.16;80.31;100217.16;3551902;27;20051;-53
2021/03/29 01:30:42;;;;;;;16.80;9.13;;;;;;;6.17;80.79;100216.31;3549597;27;20046;-51
2021/03/29 01:32:24;;;;;;;17.85;10.02;;;;;;;6.14;81.09;100219.66;3551415;27;20055;-52
2021/03/29 01:34:07;;;;;;;18.08;10.30;;;;;;;6.12;81.02;100222.16;3552074;27;20084;-51
2021/03/29 01:35:52;;;;;;;15.70;10.10;;;;;;;6.11;81.35;100216.94;3548610;27;20503;-55
2021/03/29 01:37:33;;;;;;;18.75;10.27;;;;;;;6.11;80.76;100227.25;3552555;27;20100;-53
2021/03/29 01:39:16;;;;;;;16.38;10.02;;;;;;;6.10;81.13;100225.47;3548777;27;20054;-52
2021/03/29 01:40:58;;;;;;;19.30;9.68;;;;;;;6.09;80.81;100226.31;3551655;27;20138;-51
2021/03/29 01:42:41;;;;;;;20.98;10.88;;;;;;;6.08;80.78;100230.59;3552068;27;20624;-53
2021/03/29 01:44:22;;;;;;;18.08;10.10;;;;;;;6.07;81.22;100231.41;3548876;27;20043;-54
2021/03/29 01:46:05;;;;;;;19.70;10.93;;;;;;;6.08;80.81;100225.44;3552262;27;20057;-53
2021/03/29 01:47:47;;;;;;;22.13;12.43;;;;;;;6.08;81.49;100233.16;3548659;27;20055;-51
2021/03/29 01:49:28;;;;;;;21.83;12.00;;;;;;;6.05;81.50;100230.47;3551852;27;20043;-50
2021/03/29 01:51:11;;;;;;;19.80;11.23;;;;;;;6.07;81.20;100226.25;3551274;27;20059;-54
2021/03/29 01:52:54;;;;;;;20.63;10.80;;;;;;;6.06;81.41;100232.19;3549593;27;20047;-53
2021/03/29 01:54:36;;;;;;;;;;;;;;;6.06;81.38;100223.59;3552369;27;20051;-52
2021/03/29 01:56:17;;;;;;;20.98;10.95;;;;;;;6.04;81.93;100230.41;3548713;27;19922;-53
2021/03/29 01:58:00;;;;;;;19.27;10.93;;;;;;;6.02;81.72;100235.47;3552275;27;20055;-53
2021/03/29 01:59:42;;;;;;;19.75;10.57;;;;;;;6.01;81.91;100237.97;3550453;27;20065;-51
2021/03/29 02:01:24;;;;;;;18.77;10.70;;;;;;;6.00;81.54;100233.66;3551641;27;20419;-53
2021/03/29 02:03:06;;;;;;;19.48;10.68;;;;;;;6.00;81.40;100231.09;3549074;27;20076;-51
2021/03/29 02:04:48;;;;;;;16.42;10.35;;;;;;;5.99;82.03;100244.78;3550778;27;20511;-50
2021/03/29 02:06:29;;;;;;;21.33;9.93;;;;;;;5.96;82.25;100244.63;3549624;27;20493;-52
2021/03/29 02:08:12;;;;;;;20.05;10.93;;;;;;;5.94;82.31;100236.84;3548533;27;20042;-54
2021/03/29 02:09:54;;;;;;;18.38;11.15;;;;;;;5.94;82.00;100242.00;3552128;27;20092;-51
2021/03/29 02:11:36;;;;;;;18.83;10.02;;;;;;;5.96;82.02;100239.50;3548685;27;20070;-54
2021/03/29 02:13:23;;;;;;;18.45;9.80;;;;;;;5.96;81.17;100237.81;3550356;27;22480;-53
2021/03/29 02:15:09;;;;;;;20.15;11.32;;;;;;;5.99;81.15;100243.06;3551114;27;20133;-51
2021/03/29 02:16:50;;;;;;;18.77;11.32;;;;;;;6.01;81.14;100246.63;3548359;27;20507;-54
2021/03/29 02:18:35;;;;;;;20.90;11.18;;;;;;;6.03;81.37;100247.56;3552324;27;20054;-47
2021/03/29 02:20:19;;;;;;;18.60;10.07;;;;;;;6.05;81.42;100247.63;3548850;27;20475;-47
2021/03/29 02:22:01;;;;;;;16.90;10.38;;;;;;;6.03;81.97;100246.66;3551819;27;20134;-49
2021/03/29 02:23:48;;;;;;;20.23;10.73;;;;;;;6.02;81.59;100253.50;3550598;27;20043;-47
2021/03/29 02:25:31;;;;;;;19.63;10.35;;;;;;;6.01;81.46;100243.13;3550017;27;20530;-53
2021/03/29 02:27:13;;;;;;;20.63;10.05;;;;;;;6.00;81.63;100252.56;3550643;27;20047;-52
2021/03/29 02:28:56;;;;;;;18.00;10.43;;;;;;;6.00;81.80;100250.00;3548419;27;20460;-53
2021/03/29 02:30:40;;;;;;;19.10;10.70;;;;;;;5.99;82.06;100255.06;3552035;27;20091;-48
2021/03/29 02:32:22;;;;;;;18.83;10.18;;;;;;;5.97;81.95;100255.00;3550727;27;20092;-47
2021/03/29 02:34:05;;;;;;;16.25;9.88;;;;;;;5.96;81.61;100258.41;3551474;27;20043;-47
2021/03/29 02:35:48;;;;;;;18.73;10.57;;;;;;;5.94;82.24;100252.28;3548947;27;20082;-48
2021/03/29 02:37:30;;;;;;;18.17;10.73;;;;;;;5.93;82.13;100264.31;3549892;27;20488;-48
2021/03/29 02:39:12;;;;;;;18.48;10.18;;;;;;;5.87;82.50;100256.34;3539991;28;20043;-49
2021/03/29 02:40:55;;;;;;;19.92;10.30;;;;;;;5.88;82.71;100255.50;3551042;27;20146;-48
2021/03/29 02:42:37;;;;;;;19.80;11.27;;;;;;;5.88;82.45;100258.06;3552374;27;20065;-47
2021/03/29 02:44:20;;;;;;;16.55;9.75;;;;;;;5.88;81.67;100259.78;3553075;27;20050;-47
2021/03/29 02:46:04;;;;;;;20.08;10.82;;;;;;;5.88;82.60;100263.22;3550881;27;20047;-51
2021/03/29 02:47:46;;;;;;;17.90;10.00;;;;;;;5.88;82.33;100264.94;3554428;27;20055;-48
2021/03/29 02:49:30;;;;;;;15.77;9.73;;;;;;;5.87;82.05;100265.72;3550560;27;20050;-49
2021/03/29 02:51:14;;;;;;;17.05;9.70;;;;;;;5.85;82.19;100263.13;3553611;27;20494;-47
2021/03/29 02:52:59;;;;;;;20.42;10.27;;;;;;;5.85;82.60;100263.13;3551331;27;20422;-47
2021/03/29 02:54:41;;;;;;;16.10;9.90;;;;;;;5.85;82.98;100273.41;3550661;27;20054;-48
2021/03/29 02:56:27;;;;;;;19.17;10.75;;;;;;;5.82;83.44;100278.44;3553850;27;20161;-47
2021/03/29 02:58:10;;;;;;;19.15;11.13;;;;;;;5.80;82.95;100274.91;3550547;27;20062;-47
2021/03/29 02:59:52;;;;;;;17.95;9.20;;;;;;;5.79;82.57;100272.28;3553991;27;20491;-47
2021/03/29 03:01:37;;;;;;;21.13;9.88;;;;;;;5.78;82.73;100281.66;3552464;27;20511;-47
2021/03/29 03:03:19;;;;;;;17.42;8.80;;;;;;;5.76;82.93;100275.56;3552208;27;20042;-47
2021/03/29 03:05:03;;;;;;;18.88;9.23;;;;;;;5.77;82.74;100286.78;3552363;27;20434;-47
2021/03/29 03:06:45;;;;;;;16.42;9.40;;;;;;;5.76;83.07;100283.31;3550406;27;20046;-49
2021/03/29 03:08:27;;;;;;;16.65;9.38;;;;;;;5.76;83.15;100291.03;3554141;27;20053;-47
2021/03/29 03:10:10;;;;;;;18.25;9.00;;;;;;;5.77;83.22;100284.22;3550243;27;20042;-47
2021/03/29 03:11:52;;;;;;;19.45;10.68;;;;;;;5.76;83.22;100283.31;3553580;27;20054;-47
2021/03/29 03:13:34;;;;;;;19.83;10.43;;;;;;;5.73;83.91;100291.78;3551706;27;20080;-47
2021/03/29 03:15:19;;;;;;;20.40;10.38;;;;;;;5.68;84.17;100284.69;3552741;27;20051;-47
2021/03/29 03:17:01;;;;;;;19.30;9.73;;;;;;;5.66;84.13;100296.59;3553495;27;20047;-47
2021/03/29 03:18:46;;;;;;;14.23;8.95;;;;;;;5.63;83.93;100294.78;3550524;27;20042;-47
2021/03/29 03:20:29;;;;;;;14.77;8.18;;;;;;;5.63;83.99;100297.34;3553829;27;20522;-47
2021/03/29 03:22:12;;;;;;;19.58;9.90;;;;;;;5.61;83.92;100295.53;3550078;27;20047;-49
2021/03/29 03:23:55;;;;;;;22.48;10.55;;;;;;;5.57;84.29;100302.25;3552955;27;20138;-47
2021/03/29 03:25:37;;;;;;;19.83;9.70;;;;;;;5.53;84.34;100301.19;3551590;27;20058;-47
2021/03/29 03:27:19;;;;;;;18.67;8.82;;;;;;;5.50;84.62;100303.66;3551339;27;20043;-48
2021/03/29 03:29:01;;;;;;;17.25;9.75;;;;;;;5.52;84.42;100312.31;3552517;27;20062;-48
2021/03/29 03:30:46;;;;;;;18.08;9.95;;;;;;;5.52;84.17;100308.88;3550213;27;20126;-47
2021/03/29 03:32:27;;;;;;;17.70;9.05;;;;;;;5.52;84.40;100304.59;3554048;27;20084;-47
2021/03/29 03:34:09;;;;;;;18.27;9.10;;;;;;;5.52;84.29;100311.44;3550034;27;20515;-47
2021/03/29 03:35:51;;;;;;;19.10;10.07;;;;;;;5.52;84.15;100314.03;3551702;27;20111;-48
2021/03/29 03:37:34;;;;;;;16.80;9.45;;;;;;;5.52;84.13;100320.03;3551217;27;20054;-47
2021/03/29 03:39:16;;;;;;;18.80;9.43;;;;;;;5.52;83.86;100317.47;3550916;27;20054;-46
2021/03/29 03:41:00;;;;;;;19.13;9.80;;;;;;;5.54;83.76;100322.69;3552764;27;20102;-47
2021/03/29 03:42:42;;;;;;;20.88;10.35;;;;;;;5.56;83.86;100318.47;3552104;27;20458;-47
2021/03/29 03:44:23;;;;;;;18.63;10.30;;;;;;;5.57;84.37;100322.81;3553709;27;20050;-47
2021/03/29 03:46:10;;;;;;;19.05;10.05;;;;;;;5.54;84.44;100313.25;3549926;27;20038;-48
2021/03/29 03:47:53;;;;;;;17.15;9.18;;;;;;;5.52;83.82;100314.03;3549060;27;20047;-48
2021/03/29 03:49:35;;;;;;;15.23;8.93;;;;;;;5.52;83.86;100320.03;3551333;27;20074;-46
2021/03/29 03:51:17;;;;;;;17.60;8.88;;;;;;;5.52;83.98;100312.31;3551088;27;20130;-47
2021/03/29 03:52:59;;;;;;;18.52;10.18;;;;;;;5.51;84.54;100322.53;3553558;27;20047;-47
2021/03/29 03:54:41;;;;;;;20.92;11.07;;;;;;;5.49;84.19;100319.03;3550113;27;20054;-48
2021/03/29 03:56:24;;;;;;;19.38;9.95;;;;;;;5.48;84.01;100325.88;3552901;27;20081;-50
2021/03/29 03:58:06;;;;;;;19.55;10.30;;;;;;;5.48;84.05;100323.31;3550365;27;20049;-48
2021/03/29 03:59:48;;;;;;;19.00;11.05;;;;;;;5.48;84.46;100327.53;3551288;27;20129;-47
2021/03/29 04:01:38;;;;;;;24.77;11.55;;;;;;;5.48;84.74;100328.44;3551989;27;20051;-47
2021/03/29 04:03:19;;;;;;;20.73;10.43;;;;;;;5.48;84.87;100322.41;3549843;27;20132;-46
2021/03/29 04:05:02;;;;;;;22.52;12.02;;;;;;;5.47;85.15;100329.25;3553347;27;20050;-47
2021/03/29 04:06:43;;;;;;;20.88;11.30;;;;;;;5.46;84.97;100334.31;3550874;27;20046;-47
2021/03/29 04:08:25;;;;;;;23.17;11.57;;;;;;;5.46;84.54;100326.59;3552582;27;20053;-49
2021/03/29 04:10:13;;;;;;;26.95;11.15;;;;;;;5.46;84.44;100331.75;3550896;27;20431;-47
2021/03/29 04:11:55;;;;;;;21.35;11.40;;;;;;;5.48;84.61;100337.84;3549485;27;20043;-47
2021/03/29 04:13:36;;;;;;;20.50;11.20;;;;;;;5.49;84.68;100339.59;3552001;27;20091;-48
2021/03/29 04:15:18;;;;;;;22.33;11.15;;;;;;;5.49;84.31;100340.47;3549836;27;20043;-47
2021/03/29 04:17:00;;;;;;;26.90;12.23;;;;;;;5.50;84.00;100337.09;3553016;27;20046;-47
2021/03/29 04:18:41;;;;;;;24.05;12.35;;;;;;;5.51;84.18;100345.69;3550831;27;20043;-47
2021/03/29 04:20:24;;;;;;;24.48;11.77;;;;;;;5.50;83.95;100341.34;3551126;27;20175;-47
2021/03/29 04:22:05;;;;;;;23.40;11.90;;;;;;;5.50;84.23;100338.78;3551793;27;20042;-47
2021/03/29 04:23:47;;;;;;;26.38;12.93;;;;;;;5.48;84.46;100343.88;3549452;27;20047;-48
2021/03/29 04:25:28;;;;;;;25.20;11.85;;;;;;;5.47;84.33;100351.53;3553022;27;20050;-47
2021/03/29 04:27:09;;;;;;;21.27;11.93;;;;;;;5.45;84.31;100348.00;3549340;27;20046;-47
2021/03/29 04:28:51;;;;;;;23.30;12.00;;;;;;;5.45;84.53;100348.88;3552972;27;20046;-48
2021/03/29 04:30:33;;;;;;;23.27;11.70;;;;;;;5.47;84.36;100346.38;3549542;27;20050;-48
2021/03/29 04:32:15;;;;;;;22.67;10.70;;;;;;;5.49;83.60;100342.19;3552150;27;20069;-48
2021/03/29 04:33:56;;;;;;;24.50;12.80;;;;;;;5.50;84.25;100354.22;3551602;27;20046;-47
2021/03/29 04:35:38;;;;;;;24.42;12.65;;;;;;;5.49;84.00;100353.34;3550572;27;20054;-46
2021/03/29 04:37:19;;;;;;;27.05;12.95;;;;;;;5.49;84.48;100365.34;3552570;27;20089;-50
2021/03/29 04:39:00;;;;;;;21.88;11.88;;;;;;;5.47;84.19;100357.56;3549335;27;20046;-49
2021/03/29 04:40:42;;;;;;;25.10;13.75;;;;;;;5.45;84.63;100355.72;3552864;27;20093;-47
2021/03/29 04:42:24;;;;;;;26.52;13.55;;;;;;;5.43;84.49;100360.81;3549578;27;20055;-48
2021/03/29 04:44:06;;;;;;;24.77;12.52;;;;;;;5.42;84.88;100359.03;3551067;27;20046;-47
2021/03/29 04:45:48;;;;;;;25.13;13.20;;;;;;;5.40;84.95;100360.66;3550382;27;20126;-47
2021/03/29 04:47:30;;;;;;;24.48;12.27;;;;;;;5.41;84.86;100358.97;3549228;27;20053;-47
2021/03/29 04:49:11;;;;;;;27.88;12.75;;;;;;;5.43;84.75;100367.63;3552985;27;20181;-47
2021/03/29 04:50:53;;;;;;;21.15;11.52;;;;;;;5.44;84.39;100359.97;3549152;27;20054;-47
2021/03/29 04:52:35;;;;;;;24.55;12.43;;;;;;;5.46;84.09;100363.50;3552919;27;20047;-48
2021/03/29 04:54:16;;;;;;;21.70;11.48;;;;;;;5.48;83.99;100369.63;3549083;27;20058;-49
2021/03/29 04:55:57;;;;;;;27.27;14.20;;;;;;;5.51;83.71;100362.00;3551116;27;20050;-48
2021/03/29 04:57:39;;;;;;;25.58;12.65;;;;;;;5.53;83.71;100359.50;3550194;27;20050;-47
2021/03/29 04:59:21;;;;;;;23.50;11.75;;;;;;;5.56;83.58;100367.38;3550957;27;20049;-48
2021/03/29 05:01:03;;;;;;;26.65;13.95;;;;;;;5.57;83.66;100371.72;3552098;27;20054;-48
2021/03/29 05:02:45;;;;;;;31.38;14.18;;;;;;;5.58;83.73;100364.88;3548864;27;20419;-47
2021/03/29 05:04:27;;;;;;;26.42;13.63;;;;;;;5.59;83.63;100371.78;3552841;27;20058;-47
2021/03/29 05:06:08;;;;;;;24.80;12.98;;;;;;;5.59;83.21;100367.53;3548981;27;20131;-48
2021/03/29 05:07:49;;;;;;;28.63;14.70;;;;;;;5.62;83.17;100374.47;3550832;27;20042;-47
2021/03/29 05:09:31;;;;;;;25.17;13.85;;;;;;;5.63;83.19;100379.72;3551844;27;20503;-47
2021/03/29 05:11:12;;;;;;;29.20;14.32;;;;;;;5.66;83.27;100378.94;3550046;27;20056;-46
2021/03/29 05:12:54;;;;;;;33.38;16.13;;;;;;;5.66;83.03;100381.53;3551566;27;20047;-47
2021/03/29 05:14:35;;;;;;;31.10;14.45;;;;;;;5.67;82.97;100379.03;3547568;27;20074;-47
2021/03/29 05:16:17;;;;;;;34.17;15.48;;;;;;;5.69;82.94;100389.38;3552805;27;20057;-47
2021/03/29 05:17:59;;;;;;;31.63;15.68;;;;;;;5.69;82.79;100384.25;3548882;27;20074;-47
2021/03/29 05:19:40;;;;;;;29.88;16.50;;;;;;;5.69;82.86;100381.66;3550976;27;20054;-49
2021/03/29 05:21:21;;;;;;;37.17;16.63;;;;;;;5.67;82.96;100389.31;3550810;27;20050;-53
2021/03/29 05:23:03;;;;;;;29.58;16.73;;;;;;;5.66;83.05;100389.25;3549205;27;20084;-52
2021/03/29 05:24:44;;;;;;;29.08;15.55;;;;;;;5.64;82.93;100389.19;3551284;27;20046;-53
2021/03/29 05:26:26;;;;;;;28.50;15.68;;;;;;;5.65;82.50;100390.06;3549005;27;20047;-54
2021/03/29 05:28:07;;;;;;;28.13;14.07;;;;;;;5.65;82.56;100390.94;3552410;27;20053;-51
2021/03/29 05:29:48;;;;;;;27.45;14.60;;;;;;;5.66;82.41;100396.97;3548953;27;20049;-52
2021/03/29 05:31:34;;;;;;;25.85;14.13;;;;;;;5.68;82.50;100403.09;3551914;27;20054;-53
2021/03/29 05:33:16;;;;;;;26.95;14.43;;;;;;;5.69;82.06;100405.72;3549930;27;20099;-53
2021/03/29 05:35:00;;;;;;;27.90;14.55;;;;;;;5.64;83.03;100403.75;3548906;27;20071;-54
2021/03/29 05:36:42;;;;;;;24.95;14.43;;;;;;;5.60;82.91;100407.00;3552316;27;20093;-54
2021/03/29 05:38:23;;;;;;;26.67;14.15;;;;;;;5.57;83.48;100405.19;3548941;27;20088;-47
2021/03/29 05:40:07;;;;;;;30.23;14.63;;;;;;;5.55;83.48;100407.69;3551990;27;20051;-46
2021/03/29 05:41:48;;;;;;;27.38;15.52;;;;;;;5.55;83.40;100404.22;3547983;27;20050;-47
2021/03/29 05:43:30;;;;;;;34.25;14.65;;;;;;;5.56;83.44;100408.56;3550110;27;20092;-47
2021/03/29 05:45:13;;;;;;;25.45;14.02;;;;;;;5.58;83.46;100409.50;3553207;27;20058;-46
2021/03/29 05:46:54;;;;;;;26.23;14.52;;;;;;;5.61;83.31;100416.50;3548940;27;20035;-48
2021/03/29 05:48:37;;;;;;;27.65;13.52;;;;;;;5.62;82.97;100419.09;3552358;27;20050;-47
2021/03/29 05:50:18;;;;;;;29.48;14.60;;;;;;;5.65;82.89;100420.97;3548707;27;20050;-47
2021/03/29 05:52:00;;;;;;;31.20;14.68;;;;;;;5.68;82.88;100424.56;3552409;27;20050;-50
2021/03/29 05:53:41;;;;;;;29.90;15.45;;;;;;;5.71;83.25;100424.69;3550872;27;20042;-47
2021/03/29 05:55:29;;;;;;;28.52;16.38;;;;;;;5.73;83.21;100424.78;3550226;27;20050;-48
2021/03/29 05:57:11;;;;;;;28.88;16.00;;;;;;;5.75;83.05;100430.88;3551274;27;20663;-47
2021/03/29 05:59:05;;;;;;;26.10;14.73;;;;;;;5.77;82.90;100429.25;3548672;27;20043;-47
2021/03/29 06:00:47;;;;;;;29.90;15.23;;;;;;;5.83;82.51;100438.94;3552380;27;20078;-47
2021/03/29 06:02:31;;;;;;;30.00;15.43;;;;;;;5.85;82.54;100433.06;3548578;27;20304;-47
2021/03/29 06:04:14;;;;;;;26.55;14.77;;;;;;;5.88;82.46;100432.28;3550233;27;20113;-48
2021/03/29 06:05:57;;;;;;;26.80;14.35;;;;;;;5.91;82.31;100442.75;3549877;27;20396;-47
2021/03/29 06:07:39;;;;;;;30.70;16.48;;;;;;;5.92;82.20;100442.81;3548703;27;20125;-48
2021/03/29 06:09:25;;;;;;;29.98;15.95;;;;;;;5.92;82.33;100444.47;3551897;27;20074;-51
2021/03/29 06:11:06;;;;;;;32.22;16.20;;;;;;;5.94;82.75;100438.59;3549999;27;20053;-47
2021/03/29 06:12:49;;;;;;;28.20;15.23;;;;;;;5.96;82.70;100448.06;3554485;27;20460;-48
2021/03/29 06:14:31;;;;;;;31.98;14.93;;;;;;;5.98;82.28;100441.28;3550615;27;20137;-49
2021/03/29 06:16:13;;;;;;;27.25;14.77;;;;;;;5.99;82.05;100448.22;3552323;27;20061;-48
2021/03/29 06:18:10;;;;;;;26.08;14.25;;;;;;;6.02;81.76;100450.94;3553469;27;20099;-50
2021/03/29 06:19:53;;;;;;;25.90;14.52;;;;;;;6.02;81.93;100451.81;3552900;27;20076;-48
2021/03/29 06:21:35;;;;;;;31.00;16.45;;;;;;;6.03;82.51;100453.59;3554500;27;20079;-47
2021/03/29 06:23:16;;;;;;;29.77;15.80;;;;;;;6.03;82.20;100457.84;3550844;27;20519;-47
2021/03/29 06:25:05;;;;;;;31.25;16.73;;;;;;;6.01;82.39;100450.06;3552527;27;20566;-48
2021/03/29 06:26:47;;;;;;;29.58;16.15;;;;;;;6.03;82.55;100465.56;3553876;27;20058;-47
2021/03/29 06:28:28;;;;;;;29.30;16.42;;;;;;;6.02;82.38;100462.13;3552569;27;20484;-49
2021/03/29 06:30:17;;;;;;;26.95;15.48;;;;;;;6.05;82.37;100461.38;3540257;28;20055;-54
2021/03/29 06:31:59;;;;;;;28.05;16.40;;;;;;;6.08;82.35;100464.97;3548266;27;20118;-46
2021/03/29 06:33:45;;;;;;;31.75;16.40;;;;;;;6.12;82.20;100463.41;3553922;27;20046;-48
2021/03/29 06:35:30;;;;;;;30.52;16.35;;;;;;;6.11;82.31;100469.38;3551732;27;20415;-47
2021/03/29 06:37:11;;;;;;;28.77;15.77;;;;;;;6.10;82.46;100470.16;3552186;27;20043;-47
2021/03/29 06:38:53;;;;;;;32.22;15.80;;;;;;;6.08;82.26;100475.28;3552808;27;20059;-49
2021/03/29 06:40:35;;;;;;;31.13;16.05;;;;;;;6.06;82.67;100474.31;3550344;27;20099;-47
2021/03/29 06:42:16;;;;;;;27.25;15.98;;;;;;;6.08;82.44;100474.38;3554120;27;20050;-48
2021/03/29 06:43:58;;;;;;;35.65;18.83;;;;;;;6.09;81.92;100477.03;3551811;27;20066;-48
2021/03/29 06:45:39;;;;;;;36.28;19.30;;;;;;;6.12;82.03;100479.75;3553122;27;20074;-46
2021/03/29 06:47:21;;;;;;;35.53;20.08;;;;;;;6.15;81.86;100483.28;3552221;27;20042;-47
2021/03/29 06:49:02;;;;;;;39.17;20.70;;;;;;;6.17;82.03;100481.63;3551623;27;20091;-47
2021/03/29 06:50:44;;;;;;;32.88;17.63;;;;;;;6.19;82.06;100486.06;3552730;27;20070;-49
2021/03/29 06:52:28;;;;;;;30.83;17.88;;;;;;;6.24;81.64;100486.25;3550804;27;20043;-47
2021/03/29 06:54:11;;;;;;;36.92;19.02;;;;;;;6.27;81.53;100484.69;3554051;27;20051;-47
2021/03/29 06:55:57;;;;;;;28.73;16.45;;;;;;;6.30;81.23;100487.41;3551687;27;20519;-48
2021/03/29 06:57:40;;;;;;;29.05;16.23;;;;;;;6.33;80.47;100491.81;3552255;27;20046;-47
2021/03/29 06:59:25;;;;;;;35.13;17.17;;;;;;;6.32;80.67;100490.06;3553913;27;20046;-47
2021/03/29 07:01:14;;;;;;;33.17;17.52;;;;;;;6.34;80.42;100491.00;3552107;27;20295;-47
2021/03/29 07:03:01;;;;;;;35.50;18.02;;;;;;;6.37;80.37;100495.41;3554010;27;20061;-47
2021/03/29 07:04:43;;;;;;;28.35;17.05;;;;;;;6.40;80.16;100496.44;3550217;27;20055;-48
2021/03/29 07:06:28;;;;;;;30.38;17.02;;;;;;;6.44;80.31;100498.31;3552925;27;20046;-47
2021/03/29 07:08:11;;;;;;;35.38;18.48;;;;;;;6.46;80.02;100499.25;3551993;27;20058;-46
2021/03/29 07:09:54;;;;;;;34.55;17.17;;;;;;;6.44;80.26;100495.75;3550682;27;20038;-48
2021/03/29 07:11:36;;;;;;;37.88;18.35;;;;;;;6.44;80.66;100502.59;3554053;27;20050;-46
2021/03/29 07:13:18;;;;;;;33.92;19.15;;;;;;;6.44;80.72;100497.44;3551076;27;20687;-48
2021/03/29 07:15:03;;;;;;;30.88;16.55;;;;;;;6.46;80.28;100499.25;3554020;27;20111;-47
2021/03/29 07:16:46;;;;;;;34.05;18.00;;;;;;;6.46;80.52;100498.38;3550346;27;20042;-46
2021/03/29 07:18:27;;;;;;;36.00;18.77;;;;;;;6.48;80.36;100502.78;3552889;27;20046;-48
2021/03/29 07:20:11;;;;;;;33.03;17.33;;;;;;;6.52;80.74;100506.38;3552653;27;20085;-54
2021/03/29 07:21:53;;;;;;;31.67;17.67;;;;;;;6.55;80.66;100505.63;3550132;27;20716;-52
2021/03/29 07:23:35;;;;;;;32.80;16.27;;;;;;;6.56;79.95;100505.72;3552743;27;20503;-53
2021/03/29 07:25:19;;;;;;;30.10;15.98;;;;;;;6.59;79.62;100499.78;3550208;27;20143;-52
2021/03/29 07:27:02;;;;;;;30.10;16.67;;;;;;;6.64;79.89;100500.88;3553325;27;20053;-54
2021/03/29 07:28:43;;;;;;;32.77;16.63;;;;;;;6.68;79.76;100503.66;3550808;27;20046;-52
2021/03/29 07:30:43;;;;;;;36.75;18.80;;;;;;;6.71;79.70;100510.63;3551289;27;20623;-52
2021/03/29 07:32:27;;;;;;;34.97;17.52;;;;;;;6.69;79.67;100507.97;3553364;27;20081;-53
2021/03/29 07:34:09;;;;;;;31.45;16.63;;;;;;;6.73;79.51;100510.69;3550184;27;20078;-52
2021/03/29 07:35:53;;;;;;;32.00;18.38;;;;;;;6.78;79.26;100514.34;3553680;27;20074;-51
2021/03/29 07:37:39;;;;;;;37.10;19.58;;;;;;;6.81;79.37;100517.06;3549387;27;20520;-52
2021/03/29 07:39:36;;;;;;;32.10;17.48;;;;;;;6.83;79.04;100524.03;3550956;27;20043;-53
2021/03/29 07:41:17;;;;;;;35.58;18.35;;;;;;;6.84;78.99;100528.41;3552863;27;20054;-53
2021/03/29 07:43:06;;;;;;;31.45;18.25;;;;;;;6.88;78.61;100526.84;3552681;27;20053;-53
2021/03/29 07:44:51;;;;;;;31.05;17.50;;;;;;;6.88;78.36;100526.84;3551977;27;20050;-50
2021/03/29 07:46:37;;;;;;;37.67;19.38;;;;;;;6.91;78.57;100537.25;3551657;27;20099;-51
2021/03/29 07:48:34;;;;;;;36.55;18.17;;;;;;;6.91;78.66;100536.38;3550291;27;20043;-52
2021/03/29 07:50:17;;;;;;;39.88;19.88;;;;;;;6.89;78.91;100542.38;3539258;28;20065;-51
2021/03/29 07:52:32;;;;;;;29.10;16.88;;;;;;;6.90;78.82;100543.25;3551445;27;20075;-47
2021/03/29 07:54:49;;;;;;;37.17;18.83;;;;;;;6.92;78.85;100539.03;3549858;27;20076;-48
2021/03/29 07:56:42;;;;;;;40.00;19.55;;;;;;;6.95;79.20;100549.50;3553045;27;20050;-48